Accueil
METAR-TAF:

METAR-TAF

Aéroports :

Base aérienne 105 Évreux-Fauville

Évreux, France

latitude: 49-01N, longitude: 001-13E, altitude: 141 m

Observation

Le bulletin a été fait il y a 10 minutes, à 18:30 UTC
Vent calme
Température 19°C
Humidité 46%
Pression 1022 hPa
Visibilité 10 km ou plus
pas de nuages en-dessous de 1500 mètres et pas de cumulonimbus.

METAR: LFOE 081830Z AUTO 00000KT CAVOK 19/07 Q1022 NOSIG

Heure: 20:40 (18:40 UTC)

Prévision

Le bulletin a été fait il y a 4 heures et 40 minutes, à 14:00 UTC
Prévision valable du 08 à 15 UTC au 09 à 15 UTC
Vent 3 kt de sud
Visibilité 10 km ou plus
pas de nuages en-dessous de 1500 mètres et pas de cumulonimbus.

TAF: LFOE 081400Z 0815/0915 18003KT CAVOK

Observations et prévisions météorologiques de plus de 4000 aéroports (messages METAR et TAF).

Les stations disponibles sont représentées par des disques jaunes et rouges sur la carte.

Passer la souris dessus pour voir le nom de la station.

Cliquer dessus pour voir les observations et prévisions météorologiques.

Pour changer de carte: cliquez sur les boutons verts avec une croix noire pour zoomer, sur le bouton vert avec un tiret pour effectuer un zoom arrière, ou sur les flèches vertes pour les cartes adjacentes.


METAR-TAF: